Main page
METAR-TAF:

METAR-TAF

Airports :

Gran Canaria, Spain

Gran Canaria Airport

latitude: 27-56N, longitude: 015-23W, elevation: 23 m

Current weather observation

The report was made 23 minutes ago, at 08:30 UTC
Wind 20 kt from the North
Temperature 21°C
Humidity 64%
Pressure 1020 hPa
Visibility 10 km or more
Few clouds at a height of 2000 ft
Scattered clouds at a height of 3500 ft

METAR: GCLP 300830Z 36020KT 9999 FEW020 SCT035 21/14 Q1020 NOSIG

Time: 09:53 (08:53 UTC)

Forecast

The report was made 53 minutes ago, at 08:00 UTC
Forecast valid from 30 at 09 UTC to 01 at 09 UTC
Wind 16 kt from the North
Visibility 10 km or more
Scattered clouds at a height of 3500 ft

TAF: GCLP 300800Z 3009/0109 36016KT 9999 SCT035 TX24/3013Z TN17/0106Z

Weather observations and forecasts of more than 4000 airports (METAR and TAF reports).

The available stations are represented by yellow and red dots on the map.

Hover mouse over dot to see the name of the station.

Then click to see weather observations and forecasts.

To change the map : click on the green buttons with a black cross to zoom in, on the green button with a dash to zoom out, or on the green arrows for adjacent maps.


METAR-TAF: